Time;durP1;ratioP1;P1;durP2;ratioP2;P2;SDS_P1;SDS_P2;PMS_P1;PMS_P2;Temp;Humidity;BMP_temperature;BMP_pressure;BME280_temperature;BME280_humidity;BME280_pressure;Samples;Min_cycle;Max_cycle;Signal;HPM_P1;HPM_P2
2023/10/19 05:47:07;;;;;;;5.90;2.78;;;;;;;;;;10593674;27;20970;-84
2023/10/19 05:52:08;;;;;;;3.67;2.50;;;;;;;;;;10593393;28;20394;-84
2023/10/19 05:57:09;;;;;;;3.78;2.63;;;;;;;;;;10598802;28;20056;-82
2023/10/19 06:02:10;;;;;;;4.72;2.42;;;;;;;;;;10607499;28;20023;-83
2023/10/19 06:07:11;;;;;;;3.53;2.42;;;;;;;;;;10605401;28;20024;-83
2023/10/19 06:12:12;;;;;;;2.35;1.70;;;;;;;;;;10605174;28;20030;-83
2023/10/19 06:17:18;;;;;;;4.10;2.20;;;;;;;;;;10604931;28;20039;-83
2023/10/19 06:22:20;;;;;;;2.65;1.98;;;;;;;;;;10602358;28;20031;-83
2023/10/19 06:27:21;;;;;;;4.53;2.72;;;;;;;;;;10601542;28;20027;-83
2023/10/19 06:32:22;;;;;;;2.90;1.98;;;;;;;;;;10602384;28;20024;-83
2023/10/19 06:37:23;;;;;;;2.88;1.90;;;;;;;;;;10601674;28;20055;-83
2023/10/19 06:42:25;;;;;;;3.60;1.90;;;;;;;;;;10600780;28;20040;-83
2023/10/19 06:47:26;;;;;;;3.63;1.70;;;;;;;;;;10607068;28;20031;-83
2023/10/19 06:52:27;;;;;;;2.60;1.77;;;;;;;;;;10623143;28;20020;-82
2023/10/19 06:57:28;;;;;;;2.47;2.00;;;;;;;;;;10598843;28;20047;-82
2023/10/19 07:02:29;;;;;;;3.42;1.98;;;;;;;;;;10569336;28;20089;-84
2023/10/19 07:07:30;;;;;;;2.50;1.60;;;;;;;;;;10559330;28;20484;-83
2023/10/19 07:12:32;;;;;;;3.00;1.70;;;;;;;;;;10553765;28;20107;-83
2023/10/19 07:17:39;;;;;;;2.10;1.70;;;;;;;;;;10552239;28;20058;-81
2023/10/19 07:22:42;;;;;;;4.70;1.80;;;;;;;;;;10551912;28;20031;-81
2023/10/19 07:27:43;;;;;;;3.10;1.80;;;;;;;;;;10553079;28;20103;-82
2023/10/19 07:32:44;;;;;;;3.75;2.03;;;;;;;;;;10550215;28;20168;-81
2023/10/19 07:37:45;;;;;;;5.72;2.10;;;;;;;;;;10548770;28;20020;-79
2023/10/19 07:42:46;;;;;;;3.78;2.05;;;;;;;;;;10548466;28;20032;-80
2023/10/19 07:47:48;;;;;;;5.70;1.92;;;;;;;;;;10550328;28;20028;-80
2023/10/19 07:52:50;;;;;;;6.88;2.28;;;;;;;;;;10549535;28;20535;-80
2023/10/19 07:57:52;;;;;;;3.30;2.20;;;;;;;;;;10552109;28;20017;-82
2023/10/19 08:02:56;;;;;;;5.78;2.75;;;;;;;;;;10555665;28;20024;-84
2023/10/19 08:07:58;;;;;;;6.50;2.80;;;;;;;;;;10553857;28;20032;-81
2023/10/19 08:12:59;;;;;;;5.18;2.63;;;;;;;;;;10555317;28;20096;-81
2023/10/19 08:18:00;;;;;;;3.38;2.20;;;;;;;;;;10554534;28;20081;-82
2023/10/19 08:23:02;;;;;;;4.68;2.40;;;;;;;;;;10555215;28;20051;-82
2023/10/19 08:28:03;;;;;;;3.92;2.35;;;;;;;;;;10552256;28;20047;-81
2023/10/19 08:33:06;;;;;;;6.25;2.33;;;;;;;;;;10553217;28;20115;-81
2023/10/19 08:38:11;;;;;;;5.78;2.38;;;;;;;;;;10552873;28;20047;-81
2023/10/19 08:43:13;;;;;;;5.07;2.30;;;;;;;;;;10552799;28;20384;-81
2023/10/19 08:48:14;;;;;;;7.35;3.13;;;;;;;;;;10563161;28;20462;-82
2023/10/19 08:53:17;;;;;;;8.20;4.10;;;;;;;;;;10554356;28;20125;-82
2023/10/19 08:58:22;;;;;;;7.22;3.78;;;;;;;;;;10555591;28;20028;-82
2023/10/19 09:03:24;;;;;;;10.27;3.42;;;;;;;;;;10557431;28;20051;-82
2023/10/19 09:08:25;;;;;;;12.45;9.82;;;;;;;;;;10555686;28;20466;-81
2023/10/19 09:13:26;;;;;;;6.93;2.90;;;;;;;;;;10558947;28;20047;-82
2023/10/19 09:18:27;;;;;;;5.25;3.30;;;;;;;;;;10558820;28;20024;-82
2023/10/19 09:23:31;;;;;;;5.47;3.30;;;;;;;;;;10559682;28;20028;-82
2023/10/19 09:28:34;;;;;;;5.15;3.40;;;;;;;;;;10563400;28;20027;-82
2023/10/19 09:33:36;;;;;;;3.85;2.63;;;;;;;;;;10565815;28;20100;-82
2023/10/19 09:38:37;;;;;;;4.70;2.67;;;;;;;;;;10558754;28;20028;-82
2023/10/19 09:43:41;;;;;;;5.40;2.75;;;;;;;;;;10558210;28;20074;-83
2023/10/19 09:48:44;;;;;;;5.60;2.40;;;;;;;;;;10555643;28;20122;-82
2023/10/19 09:53:50;;;;;;;4.28;2.60;;;;;;;;;;10552208;28;20032;-82
2023/10/19 09:59:13;;;;;;;5.50;3.20;;;;;;;;;;10554588;28;20484;-82
2023/10/19 10:04:31;;;;;;;4.10;2.33;;;;;;;;;;10551283;28;20028;-82
2023/10/19 10:09:33;;;;;;;6.00;2.60;;;;;;;;;;10549513;28;20024;-82
2023/10/19 10:14:35;;;;;;;5.78;2.50;;;;;;;;;;10555475;28;20100;-82
2023/10/19 10:19:36;;;;;;;5.30;2.17;;;;;;;;;;10556798;28;20112;-83
2023/10/19 10:24:39;;;;;;;5.40;2.00;;;;;;;;;;10557744;28;20066;-83
2023/10/19 10:30:06;;;;;;;5.07;2.00;;;;;;;;;;10561987;28;20028;-84
2023/10/19 10:35:09;;;;;;;6.60;1.90;;;;;;;;;;10562324;28;20028;-84
2023/10/19 10:40:11;;;;;;;5.93;2.15;;;;;;;;;;10566990;28;20088;-84
2023/10/19 10:45:24;;;;;;;4.15;2.10;;;;;;;;;;10561556;28;20031;-84
2023/10/19 10:50:25;;;;;;;5.45;2.10;;;;;;;;;;10558364;28;20039;-84
2023/10/19 10:55:26;;;;;;;4.70;2.10;;;;;;;;;;10556762;28;20073;-82
2023/10/19 11:00:28;;;;;;;8.18;3.45;;;;;;;;;;10556001;28;20106;-83
2023/10/19 11:05:29;;;;;;;5.32;2.90;;;;;;;;;;10553268;28;20028;-82
2023/10/19 11:10:30;;;;;;;7.70;2.20;;;;;;;;;;10551187;28;20415;-82
2023/10/19 11:15:31;;;;;;;5.60;2.00;;;;;;;;;;10553538;28;20410;-83
2023/10/19 11:20:35;;;;;;;5.55;2.08;;;;;;;;;;10552501;28;20027;-85
2023/10/19 11:25:37;;;;;;;6.88;2.00;;;;;;;;;;10552355;28;20024;-84
2023/10/19 11:30:38;;;;;;;4.95;1.98;;;;;;;;;;10556901;28;20020;-84
2023/10/19 11:35:39;;;;;;;4.97;1.83;;;;;;;;;;10554692;28;20051;-83
2023/10/19 11:40:40;;;;;;;6.82;2.22;;;;;;;;;;10553817;28;20024;-84
2023/10/19 11:45:42;;;;;;;8.18;3.45;;;;;;;;;;10554113;28;20055;-84
2023/10/19 11:50:43;;;;;;;6.68;2.88;;;;;;;;;;10549912;28;20032;-84
2023/10/19 11:56:32;;;;;;;4.82;1.80;;;;;;;;;;10553983;22;20115;-83
2023/10/19 12:01:42;;;;;;;5.80;2.00;;;;;;;;;;10425969;28;20044;-82
2023/10/19 12:07:15;;;;;;;6.13;2.00;;;;;;;;;;10422896;28;20033;-83
2023/10/19 12:12:17;;;;;;;6.53;1.80;;;;;;;;;;10424914;28;20037;-85
2023/10/19 12:17:18;;;;;;;4.47;1.70;;;;;;;;;;10419144;28;20337;-86
2023/10/19 12:22:38;;;;;;;8.32;2.20;;;;;;;;;;10414571;28;20029;-86
2023/10/19 12:27:43;;;;;;;5.30;1.65;;;;;;;;;;10418064;28;20036;-86
2023/10/19 12:38:16;;;;;;;5.88;1.88;;;;;;;;;;10431547;28;20029;-87
2023/10/19 12:43:22;;;;;;;4.32;1.60;;;;;;;;;;10417467;28;20041;-85
2023/10/19 12:48:42;;;;;;;7.03;2.00;;;;;;;;;;10419902;28;20112;-86
2023/10/19 12:53:56;;;;;;;4.45;1.98;;;;;;;;;;10432455;28;20021;-87
2023/10/19 12:59:18;;;;;;;5.50;2.80;;;;;;;;;;10434570;28;20030;-85
2023/10/19 13:04:46;;;;;;;5.35;1.88;;;;;;;;;;10423060;28;20032;-87
2023/10/19 13:15:47;;;;;;;;;;;;;;;;;;10437220;28;20041;-85
2023/10/19 13:26:59;;;;;;;5.88;2.10;;;;;;;;;;10345382;28;20054;-86
2023/10/19 13:37:47;;;;;;;4.78;2.00;;;;;;;;;;10345162;28;20105;-86
2023/10/19 13:42:48;;;;;;;3.67;1.80;;;;;;;;;;10341945;28;20030;-83
2023/10/19 13:47:54;;;;;;;6.40;2.65;;;;;;;;;;10344073;28;20026;-83
2023/10/19 13:52:56;;;;;;;7.50;3.05;;;;;;;;;;10412262;28;20065;-83
2023/10/19 13:57:57;;;;;;;5.55;2.05;;;;;;;;;;10415182;28;20047;-82
2023/10/19 14:03:00;;;;;;;4.75;1.92;;;;;;;;;;10416345;28;20037;-82
2023/10/19 14:08:03;;;;;;;5.72;2.42;;;;;;;;;;10418746;28;20021;-82
2023/10/19 14:13:05;;;;;;;7.15;2.50;;;;;;;;;;10422578;28;20049;-82
2023/10/19 14:18:06;;;;;;;5.28;1.95;;;;;;;;;;10420923;28;20156;-81
2023/10/19 14:23:08;;;;;;;4.40;1.80;;;;;;;;;;10424088;28;20156;-82
2023/10/19 14:28:09;;;;;;;3.85;2.05;;;;;;;;;;10426934;28;20049;-82
2023/10/19 14:33:10;;;;;;;4.18;2.13;;;;;;;;;;10424621;28;20033;-82
2023/10/19 14:38:14;;;;;;;4.80;1.75;;;;;;;;;;10425325;28;20075;-82
2023/10/19 14:43:15;;;;;;;6.13;2.38;;;;;;;;;;10431388;28;20433;-83
2023/10/19 14:48:20;;;;;;;7.70;3.20;;;;;;;;;;10434144;28;20021;-83
2023/10/19 14:53:22;;;;;;;5.85;2.50;;;;;;;;;;10432541;28;20125;-84
2023/10/19 14:58:26;;;;;;;6.07;1.98;;;;;;;;;;10426901;28;20482;-83
2023/10/19 15:03:28;;;;;;;4.13;1.80;;;;;;;;;;10422852;28;20056;-83
2023/10/19 15:08:31;;;;;;;13.77;10.43;;;;;;;;;;10420355;28;20028;-82
2023/10/19 15:13:36;;;;;;;5.00;2.17;;;;;;;;;;10418559;28;20389;-83
2023/10/19 15:18:39;;;;;;;3.65;1.75;;;;;;;;;;10422109;28;20108;-82
2023/10/19 15:23:46;;;;;;;5.13;2.03;;;;;;;;;;10410544;28;20042;-83
2023/10/19 15:28:58;;;;;;;4.40;1.77;;;;;;;;;;10444915;28;20169;-83
2023/10/19 15:33:59;;;;;;;4.85;1.77;;;;;;;;;;10424030;28;20021;-82
2023/10/19 15:39:00;;;;;;;5.50;2.10;;;;;;;;;;10420607;28;20468;-81
2023/10/19 15:44:08;;;;;;;5.57;1.98;;;;;;;;;;10435211;28;20101;-80
2023/10/19 15:49:09;;;;;;;4.40;1.70;;;;;;;;;;10413658;28;20057;-81
2023/10/19 15:54:13;;;;;;;8.18;3.58;;;;;;;;;;10416274;28;20547;-82
2023/10/19 15:59:43;;;;;;;5.60;3.22;;;;;;;;;;10425241;28;20038;-83
2023/10/19 16:04:48;;;;;;;2.53;1.60;;;;;;;;;;10412144;28;20025;-83
2023/10/19 16:10:00;;;;;;;4.85;2.05;;;;;;;;;;10435325;28;20484;-82
2023/10/19 16:15:01;;;;;;;6.35;2.55;;;;;;;;;;10415880;28;20025;-82
2023/10/19 16:20:06;;;;;;;3.15;1.75;;;;;;;;;;10415404;28;20033;-85
2023/10/19 16:25:12;;;;;;;5.55;2.20;;;;;;;;;;10415667;28;20025;-83
2023/10/19 16:30:13;;;;;;;7.50;3.85;;;;;;;;;;10418307;28;20059;-85
2023/10/19 16:35:14;;;;;;;5.70;2.58;;;;;;;;;;10418394;28;20072;-84
2023/10/19 16:40:15;;;;;;;5.80;2.53;;;;;;;;;;10408558;28;20017;-84
2023/10/19 16:45:16;;;;;;;5.88;2.75;;;;;;;;;;10429105;28;20029;-84
2023/10/19 16:50:21;;;;;;;6.65;2.60;;;;;;;;;;10410258;28;20139;-84
2023/10/19 16:55:25;;;;;;;6.13;2.50;;;;;;;;;;10412369;28;20452;-84
2023/10/19 17:00:41;;;;;;;4.07;2.28;;;;;;;;;;10415078;28;20061;-84
2023/10/19 17:05:43;;;;;;;4.85;2.17;;;;;;;;;;10415390;28;20093;-84
2023/10/19 17:10:44;;;;;;;5.85;3.42;;;;;;;;;;10408643;28;20056;-84
2023/10/19 17:15:46;;;;;;;9.55;3.78;;;;;;;;;;10426880;28;20025;-84
2023/10/19 17:20:47;;;;;;;4.53;2.75;;;;;;;;;;10406986;28;20034;-84
2023/10/19 17:26:11;;;;;;;5.07;2.83;;;;;;;;;;10418719;28;20493;-84
2023/10/19 17:31:13;;;;;;;5.78;2.85;;;;;;;;;;10406233;28;20033;-84
2023/10/19 17:36:17;;;;;;;6.68;3.33;;;;;;;;;;10412837;28;20459;-84
2023/10/19 17:41:36;;;;;;;3.65;2.50;;;;;;;;;;10422190;28;20203;-84
2023/10/19 17:46:37;;;;;;;9.90;5.05;;;;;;;;;;10403376;28;20064;-83
2023/10/19 17:51:38;;;;;;;5.85;3.28;;;;;;;;;;10403201;28;20397;-84
2023/10/19 17:56:51;;;;;;;9.30;4.60;;;;;;;;;;10456955;22;20140;-85
